sensor_id;sensor_type;location;lat;lon;timestamp;P1;durP1;ratioP1;P2;durP2;ratioP2
14052;SDS011;7101;51.600;7.310;2022-08-27T00:01:41;7.07;;;3.17;;
14052;SDS011;7101;51.600;7.310;2022-08-27T00:04:08;6.80;;;3.10;;
14052;SDS011;7101;51.600;7.310;2022-08-27T00:06:35;7.15;;;3.75;;
14052;SDS011;7101;51.600;7.310;2022-08-27T00:09:02;5.35;;;3.03;;
14052;SDS011;7101;51.600;7.310;2022-08-27T00:11:31;4.82;;;3.42;;
14052;SDS011;7101;51.600;7.310;2022-08-27T00:13:58;4.70;;;2.90;;
14052;SDS011;7101;51.600;7.310;2022-08-27T00:16:25;6.80;;;3.30;;
14052;SDS011;7101;51.600;7.310;2022-08-27T00:18:52;6.25;;;3.08;;
14052;SDS011;7101;51.600;7.310;2022-08-27T00:21:20;5.38;;;3.25;;
14052;SDS011;7101;51.600;7.310;2022-08-27T00:23:47;6.30;;;3.33;;
14052;SDS011;7101;51.600;7.310;2022-08-27T00:26:14;4.72;;;3.08;;
14052;SDS011;7101;51.600;7.310;2022-08-27T00:28:43;8.20;;;3.13;;
14052;SDS011;7101;51.600;7.310;2022-08-27T00:31:11;4.82;;;2.95;;
14052;SDS011;7101;51.600;7.310;2022-08-27T00:33:39;6.05;;;2.58;;
14052;SDS011;7101;51.600;7.310;2022-08-27T00:36:07;10.48;;;3.38;;
14052;SDS011;7101;51.600;7.310;2022-08-27T00:38:34;6.55;;;2.90;;
14052;SDS011;7101;51.600;7.310;2022-08-27T00:41:02;5.25;;;2.88;;
14052;SDS011;7101;51.600;7.310;2022-08-27T00:43:31;6.22;;;2.92;;
14052;SDS011;7101;51.600;7.310;2022-08-27T00:46:13;6.05;;;2.85;;
14052;SDS011;7101;51.600;7.310;2022-08-27T00:48:45;6.45;;;3.05;;
14052;SDS011;7101;51.600;7.310;2022-08-27T00:51:14;5.13;;;2.55;;
14052;SDS011;7101;51.600;7.310;2022-08-27T00:53:41;9.52;;;3.20;;
14052;SDS011;7101;51.600;7.310;2022-08-27T00:56:09;9.20;;;2.55;;
14052;SDS011;7101;51.600;7.310;2022-08-27T00:58:41;20.83;;;3.08;;
14052;SDS011;7101;51.600;7.310;2022-08-27T01:01:13;6.93;;;2.50;;
14052;SDS011;7101;51.600;7.310;2022-08-27T01:03:42;9.10;;;2.97;;
14052;SDS011;7101;51.600;7.310;2022-08-27T01:06:11;7.07;;;2.70;;
14052;SDS011;7101;51.600;7.310;2022-08-27T01:08:41;10.65;;;2.88;;
14052;SDS011;7101;51.600;7.310;2022-08-27T01:11:10;6.88;;;2.42;;
14052;SDS011;7101;51.600;7.310;2022-08-27T01:13:38;7.60;;;2.55;;
14052;SDS011;7101;51.600;7.310;2022-08-27T01:16:06;7.03;;;2.83;;
14052;SDS011;7101;51.600;7.310;2022-08-27T01:18:34;13.18;;;2.83;;
14052;SDS011;7101;51.600;7.310;2022-08-27T01:21:04;5.40;;;2.50;;
14052;SDS011;7101;51.600;7.310;2022-08-27T01:23:39;10.52;;;2.58;;
14052;SDS011;7101;51.600;7.310;2022-08-27T01:26:14;8.50;;;2.50;;
14052;SDS011;7101;51.600;7.310;2022-08-27T01:28:42;5.30;;;2.42;;
14052;SDS011;7101;51.600;7.310;2022-08-27T01:31:09;6.65;;;2.50;;
14052;SDS011;7101;51.600;7.310;2022-08-27T01:33:37;5.35;;;2.72;;
14052;SDS011;7101;51.600;7.310;2022-08-27T01:36:04;4.65;;;2.83;;
14052;SDS011;7101;51.600;7.310;2022-08-27T01:38:32;7.35;;;2.30;;
14052;SDS011;7101;51.600;7.310;2022-08-27T01:40:59;7.05;;;2.63;;
14052;SDS011;7101;51.600;7.310;2022-08-27T01:43:28;6.30;;;2.40;;
14052;SDS011;7101;51.600;7.310;2022-08-27T01:45:56;12.57;;;3.15;;
14052;SDS011;7101;51.600;7.310;2022-08-27T01:48:23;6.32;;;2.58;;
14052;SDS011;7101;51.600;7.310;2022-08-27T01:50:50;7.50;;;2.45;;
14052;SDS011;7101;51.600;7.310;2022-08-27T01:53:17;7.25;;;2.50;;
14052;SDS011;7101;51.600;7.310;2022-08-27T01:55:47;4.93;;;2.30;;
14052;SDS011;7101;51.600;7.310;2022-08-27T01:58:15;9.90;;;2.67;;
14052;SDS011;7101;51.600;7.310;2022-08-27T02:00:45;7.47;;;2.88;;
14052;SDS011;7101;51.600;7.310;2022-08-27T02:03:14;4.53;;;2.60;;
14052;SDS011;7101;51.600;7.310;2022-08-27T02:05:42;7.38;;;2.78;;
14052;SDS011;7101;51.600;7.310;2022-08-27T02:08:09;5.35;;;2.45;;
14052;SDS011;7101;51.600;7.310;2022-08-27T02:10:38;6.63;;;2.53;;
14052;SDS011;7101;51.600;7.310;2022-08-27T02:13:06;6.97;;;2.58;;
14052;SDS011;7101;51.600;7.310;2022-08-27T02:15:33;5.18;;;2.70;;
14052;SDS011;7101;51.600;7.310;2022-08-27T02:18:03;5.90;;;2.50;;
14052;SDS011;7101;51.600;7.310;2022-08-27T02:20:31;7.10;;;2.45;;
14052;SDS011;7101;51.600;7.310;2022-08-27T02:22:58;7.55;;;2.47;;
14052;SDS011;7101;51.600;7.310;2022-08-27T02:25:26;9.40;;;2.60;;
14052;SDS011;7101;51.600;7.310;2022-08-27T02:27:53;8.05;;;2.70;;
14052;SDS011;7101;51.600;7.310;2022-08-27T02:30:24;6.38;;;2.50;;
14052;SDS011;7101;51.600;7.310;2022-08-27T02:32:52;10.63;;;2.97;;
14052;SDS011;7101;51.600;7.310;2022-08-27T02:35:21;10.52;;;2.75;;
14052;SDS011;7101;51.600;7.310;2022-08-27T02:37:49;8.40;;;2.42;;
14052;SDS011;7101;51.600;7.310;2022-08-27T02:40:17;5.40;;;2.50;;
14052;SDS011;7101;51.600;7.310;2022-08-27T02:42:45;7.18;;;2.33;;
14052;SDS011;7101;51.600;7.310;2022-08-27T02:45:13;8.18;;;2.20;;
14052;SDS011;7101;51.600;7.310;2022-08-27T02:47:40;11.55;;;2.45;;
14052;SDS011;7101;51.600;7.310;2022-08-27T02:50:08;9.65;;;2.45;;
14052;SDS011;7101;51.600;7.310;2022-08-27T02:52:37;7.18;;;2.50;;
14052;SDS011;7101;51.600;7.310;2022-08-27T02:55:04;7.05;;;2.20;;
14052;SDS011;7101;51.600;7.310;2022-08-27T02:57:31;10.75;;;2.33;;
14052;SDS011;7101;51.600;7.310;2022-08-27T02:59:59;8.73;;;2.40;;
14052;SDS011;7101;51.600;7.310;2022-08-27T03:02:25;7.03;;;2.28;;
14052;SDS011;7101;51.600;7.310;2022-08-27T03:04:52;8.07;;;2.30;;
14052;SDS011;7101;51.600;7.310;2022-08-27T03:07:19;4.15;;;2.10;;
14052;SDS011;7101;51.600;7.310;2022-08-27T03:09:49;8.30;;;2.30;;
14052;SDS011;7101;51.600;7.310;2022-08-27T03:12:17;5.25;;;2.00;;
14052;SDS011;7101;51.600;7.310;2022-08-27T03:14:43;8.73;;;2.30;;
14052;SDS011;7101;51.600;7.310;2022-08-27T03:17:10;6.95;;;1.90;;
14052;SDS011;7101;51.600;7.310;2022-08-27T03:19:54;6.47;;;2.08;;
14052;SDS011;7101;51.600;7.310;2022-08-27T03:22:21;9.85;;;2.15;;
14052;SDS011;7101;51.600;7.310;2022-08-27T03:24:49;8.25;;;2.30;;
14052;SDS011;7101;51.600;7.310;2022-08-27T03:27:16;10.55;;;2.08;;
14052;SDS011;7101;51.600;7.310;2022-08-27T03:29:43;11.15;;;2.13;;
14052;SDS011;7101;51.600;7.310;2022-08-27T03:32:10;12.25;;;2.22;;
14052;SDS011;7101;51.600;7.310;2022-08-27T03:34:37;6.80;;;2.22;;
14052;SDS011;7101;51.600;7.310;2022-08-27T03:37:03;7.85;;;1.80;;
14052;SDS011;7101;51.600;7.310;2022-08-27T03:39:30;6.75;;;2.13;;
14052;SDS011;7101;51.600;7.310;2022-08-27T03:41:59;5.18;;;2.10;;
14052;SDS011;7101;51.600;7.310;2022-08-27T03:44:25;7.30;;;1.90;;
14052;SDS011;7101;51.600;7.310;2022-08-27T03:46:52;5.63;;;1.90;;
14052;SDS011;7101;51.600;7.310;2022-08-27T03:49:20;10.32;;;2.00;;
14052;SDS011;7101;51.600;7.310;2022-08-27T03:51:47;7.25;;;2.10;;
14052;SDS011;7101;51.600;7.310;2022-08-27T03:54:15;3.50;;;1.80;;
14052;SDS011;7101;51.600;7.310;2022-08-27T03:56:42;5.05;;;1.85;;
14052;SDS011;7101;51.600;7.310;2022-08-27T03:59:10;7.90;;;1.98;;
14052;SDS011;7101;51.600;7.310;2022-08-27T04:01:39;7.65;;;1.98;;
14052;SDS011;7101;51.600;7.310;2022-08-27T04:04:06;7.50;;;1.90;;
14052;SDS011;7101;51.600;7.310;2022-08-27T04:06:33;10.82;;;2.30;;
14052;SDS011;7101;51.600;7.310;2022-08-27T04:09:00;7.28;;;1.80;;
14052;SDS011;7101;51.600;7.310;2022-08-27T04:11:27;7.55;;;2.20;;
14052;SDS011;7101;51.600;7.310;2022-08-27T04:13:54;6.50;;;1.70;;
14052;SDS011;7101;51.600;7.310;2022-08-27T04:16:23;7.57;;;2.00;;
14052;SDS011;7101;51.600;7.310;2022-08-27T04:18:51;7.45;;;1.88;;
14052;SDS011;7101;51.600;7.310;2022-08-27T04:21:19;5.13;;;1.70;;
14052;SDS011;7101;51.600;7.310;2022-08-27T04:23:47;5.60;;;1.80;;
14052;SDS011;7101;51.600;7.310;2022-08-27T04:26:14;10.80;;;2.20;;
14052;SDS011;7101;51.600;7.310;2022-08-27T04:28:40;5.38;;;1.77;;
14052;SDS011;7101;51.600;7.310;2022-08-27T04:31:08;5.50;;;1.90;;
14052;SDS011;7101;51.600;7.310;2022-08-27T04:33:36;8.07;;;2.35;;
14052;SDS011;7101;51.600;7.310;2022-08-27T04:36:04;5.70;;;1.92;;
14052;SDS011;7101;51.600;7.310;2022-08-27T04:38:33;8.02;;;2.13;;
14052;SDS011;7101;51.600;7.310;2022-08-27T04:41:01;7.82;;;2.22;;
14052;SDS011;7101;51.600;7.310;2022-08-27T04:43:46;5.72;;;1.80;;
14052;SDS011;7101;51.600;7.310;2022-08-27T04:46:17;6.22;;;2.00;;
14052;SDS011;7101;51.600;7.310;2022-08-27T04:48:46;8.30;;;1.98;;
14052;SDS011;7101;51.600;7.310;2022-08-27T04:51:13;7.18;;;2.00;;
14052;SDS011;7101;51.600;7.310;2022-08-27T04:53:40;8.52;;;2.00;;
14052;SDS011;7101;51.600;7.310;2022-08-27T04:56:07;7.95;;;1.75;;
14052;SDS011;7101;51.600;7.310;2022-08-27T04:58:38;8.73;;;2.05;;
14052;SDS011;7101;51.600;7.310;2022-08-27T05:01:06;7.13;;;2.15;;
14052;SDS011;7101;51.600;7.310;2022-08-27T05:03:33;5.30;;;1.85;;
14052;SDS011;7101;51.600;7.310;2022-08-27T05:06:02;5.50;;;1.67;;
14052;SDS011;7101;51.600;7.310;2022-08-27T05:08:30;6.03;;;1.60;;
14052;SDS011;7101;51.600;7.310;2022-08-27T05:10:58;3.75;;;1.42;;
14052;SDS011;7101;51.600;7.310;2022-08-27T05:13:26;7.30;;;1.75;;
14052;SDS011;7101;51.600;7.310;2022-08-27T05:15:57;3.72;;;1.58;;
14052;SDS011;7101;51.600;7.310;2022-08-27T05:18:25;5.70;;;1.77;;
14052;SDS011;7101;51.600;7.310;2022-08-27T05:20:52;5.32;;;1.50;;
14052;SDS011;7101;51.600;7.310;2022-08-27T05:23:21;5.35;;;1.83;;
14052;SDS011;7101;51.600;7.310;2022-08-27T05:25:49;5.93;;;1.60;;
14052;SDS011;7101;51.600;7.310;2022-08-27T05:28:18;9.40;;;2.15;;
14052;SDS011;7101;51.600;7.310;2022-08-27T05:30:47;4.18;;;1.45;;
14052;SDS011;7101;51.600;7.310;2022-08-27T05:33:16;7.45;;;1.90;;
14052;SDS011;7101;51.600;7.310;2022-08-27T05:35:45;5.38;;;1.40;;
14052;SDS011;7101;51.600;7.310;2022-08-27T05:38:15;7.07;;;2.20;;
14052;SDS011;7101;51.600;7.310;2022-08-27T05:40:44;5.47;;;1.70;;
14052;SDS011;7101;51.600;7.310;2022-08-27T05:43:13;7.72;;;1.95;;
14052;SDS011;7101;51.600;7.310;2022-08-27T05:45:40;6.28;;;1.98;;
14052;SDS011;7101;51.600;7.310;2022-08-27T05:48:08;7.78;;;1.92;;
14052;SDS011;7101;51.600;7.310;2022-08-27T05:50:35;5.80;;;1.65;;
14052;SDS011;7101;51.600;7.310;2022-08-27T05:53:03;6.45;;;1.85;;
14052;SDS011;7101;51.600;7.310;2022-08-27T05:55:34;6.70;;;1.63;;
14052;SDS011;7101;51.600;7.310;2022-08-27T05:58:03;8.05;;;1.70;;
14052;SDS011;7101;51.600;7.310;2022-08-27T06:00:30;3.75;;;1.48;;
14052;SDS011;7101;51.600;7.310;2022-08-27T06:03:14;8.63;;;1.70;;
14052;SDS011;7101;51.600;7.310;2022-08-27T06:05:41;5.72;;;1.52;;
14052;SDS011;7101;51.600;7.310;2022-08-27T06:08:08;6.32;;;2.08;;
14052;SDS011;7101;51.600;7.310;2022-08-27T06:10:38;5.70;;;1.58;;
14052;SDS011;7101;51.600;7.310;2022-08-27T06:13:06;5.68;;;1.88;;
14052;SDS011;7101;51.600;7.310;2022-08-27T06:15:33;6.07;;;2.08;;
14052;SDS011;7101;51.600;7.310;2022-08-27T06:18:00;7.88;;;1.92;;
14052;SDS011;7101;51.600;7.310;2022-08-27T06:20:27;3.05;;;1.55;;
14052;SDS011;7101;51.600;7.310;2022-08-27T06:22:53;5.38;;;1.77;;
14052;SDS011;7101;51.600;7.310;2022-08-27T06:25:20;7.75;;;1.80;;
14052;SDS011;7101;51.600;7.310;2022-08-27T06:27:47;7.05;;;1.65;;
14052;SDS011;7101;51.600;7.310;2022-08-27T06:30:15;6.15;;;1.75;;
14052;SDS011;7101;51.600;7.310;2022-08-27T06:32:42;4.93;;;1.63;;
14052;SDS011;7101;51.600;7.310;2022-08-27T06:35:09;6.53;;;1.88;;
14052;SDS011;7101;51.600;7.310;2022-08-27T06:37:36;3.30;;;1.58;;
14052;SDS011;7101;51.600;7.310;2022-08-27T06:40:03;4.85;;;1.35;;
14052;SDS011;7101;51.600;7.310;2022-08-27T06:42:30;6.18;;;1.58;;
14052;SDS011;7101;51.600;7.310;2022-08-27T06:44:57;8.93;;;1.55;;
14052;SDS011;7101;51.600;7.310;2022-08-27T06:47:29;5.75;;;1.83;;
14052;SDS011;7101;51.600;7.310;2022-08-27T06:49:56;3.58;;;1.58;;
14052;SDS011;7101;51.600;7.310;2022-08-27T06:52:23;6.47;;;1.63;;
14052;SDS011;7101;51.600;7.310;2022-08-27T06:54:50;5.20;;;1.48;;
14052;SDS011;7101;51.600;7.310;2022-08-27T06:57:23;6.43;;;1.83;;
14052;SDS011;7101;51.600;7.310;2022-08-27T06:59:51;4.10;;;1.63;;
14052;SDS011;7101;51.600;7.310;2022-08-27T07:02:18;5.13;;;1.77;;
14052;SDS011;7101;51.600;7.310;2022-08-27T07:04:47;6.57;;;1.60;;
14052;SDS011;7101;51.600;7.310;2022-08-27T07:07:14;4.28;;;1.58;;
14052;SDS011;7101;51.600;7.310;2022-08-27T07:09:41;5.10;;;1.60;;
14052;SDS011;7101;51.600;7.310;2022-08-27T07:12:08;4.88;;;1.73;;
14052;SDS011;7101;51.600;7.310;2022-08-27T07:14:34;6.60;;;1.65;;
14052;SDS011;7101;51.600;7.310;2022-08-27T07:17:01;4.55;;;2.13;;
14052;SDS011;7101;51.600;7.310;2022-08-27T07:19:30;10.38;;;2.22;;
14052;SDS011;7101;51.600;7.310;2022-08-27T07:21:59;5.18;;;2.10;;
14052;SDS011;7101;51.600;7.310;2022-08-27T07:24:25;8.65;;;2.10;;
14052;SDS011;7101;51.600;7.310;2022-08-27T07:26:52;5.13;;;1.40;;
14052;SDS011;7101;51.600;7.310;2022-08-27T07:29:19;4.75;;;1.67;;
14052;SDS011;7101;51.600;7.310;2022-08-27T07:31:46;7.20;;;1.70;;
14052;SDS011;7101;51.600;7.310;2022-08-27T07:34:12;5.57;;;1.70;;
14052;SDS011;7101;51.600;7.310;2022-08-27T07:36:39;6.88;;;1.65;;
14052;SDS011;7101;51.600;7.310;2022-08-27T07:39:07;4.60;;;1.70;;
14052;SDS011;7101;51.600;7.310;2022-08-27T07:41:34;4.45;;;1.40;;
14052;SDS011;7101;51.600;7.310;2022-08-27T07:44:22;5.18;;;1.60;;
14052;SDS011;7101;51.600;7.310;2022-08-27T07:46:49;4.43;;;1.48;;
14052;SDS011;7101;51.600;7.310;2022-08-27T07:49:16;4.25;;;1.40;;
14052;SDS011;7101;51.600;7.310;2022-08-27T07:51:44;5.45;;;1.52;;
14052;SDS011;7101;51.600;7.310;2022-08-27T07:54:13;4.40;;;1.60;;
14052;SDS011;7101;51.600;7.310;2022-08-27T07:56:41;5.75;;;1.60;;
14052;SDS011;7101;51.600;7.310;2022-08-27T07:59:08;3.60;;;1.33;;
14052;SDS011;7101;51.600;7.310;2022-08-27T08:01:36;4.25;;;1.52;;
14052;SDS011;7101;51.600;7.310;2022-08-27T08:04:03;4.88;;;1.60;;
14052;SDS011;7101;51.600;7.310;2022-08-27T08:06:30;5.68;;;1.85;;
14052;SDS011;7101;51.600;7.310;2022-08-27T08:08:58;7.65;;;1.80;;
14052;SDS011;7101;51.600;7.310;2022-08-27T08:11:26;5.75;;;1.48;;
14052;SDS011;7101;51.600;7.310;2022-08-27T08:13:53;4.47;;;1.63;;
14052;SDS011;7101;51.600;7.310;2022-08-27T08:16:21;6.10;;;1.77;;
14052;SDS011;7101;51.600;7.310;2022-08-27T08:18:49;5.90;;;1.50;;
14052;SDS011;7101;51.600;7.310;2022-08-27T08:21:16;7.00;;;1.80;;
14052;SDS011;7101;51.600;7.310;2022-08-27T08:23:43;7.15;;;1.60;;
14052;SDS011;7101;51.600;7.310;2022-08-27T08:26:11;5.43;;;1.40;;
14052;SDS011;7101;51.600;7.310;2022-08-27T08:28:39;8.07;;;1.88;;
14052;SDS011;7101;51.600;7.310;2022-08-27T08:31:06;6.72;;;1.80;;
14052;SDS011;7101;51.600;7.310;2022-08-27T08:33:34;5.30;;;1.63;;
14052;SDS011;7101;51.600;7.310;2022-08-27T08:36:02;4.75;;;1.50;;
14052;SDS011;7101;51.600;7.310;2022-08-27T08:38:31;5.35;;;1.50;;
14052;SDS011;7101;51.600;7.310;2022-08-27T08:40:57;5.03;;;1.77;;
14052;SDS011;7101;51.600;7.310;2022-08-27T08:43:28;3.75;;;1.52;;
14052;SDS011;7101;51.600;7.310;2022-08-27T08:46:01;5.50;;;1.50;;
14052;SDS011;7101;51.600;7.310;2022-08-27T08:48:33;5.90;;;1.80;;
14052;SDS011;7101;51.600;7.310;2022-08-27T08:51:04;6.38;;;1.90;;
14052;SDS011;7101;51.600;7.310;2022-08-27T08:53:40;8.57;;;1.92;;
14052;SDS011;7101;51.600;7.310;2022-08-27T08:56:16;5.07;;;1.63;;
14052;SDS011;7101;51.600;7.310;2022-08-27T08:58:48;7.38;;;1.75;;
14052;SDS011;7101;51.600;7.310;2022-08-27T09:01:19;3.80;;;1.40;;
14052;SDS011;7101;51.600;7.310;2022-08-27T09:03:48;16.05;;;1.83;;
14052;SDS011;7101;51.600;7.310;2022-08-27T09:06:20;4.22;;;1.40;;
14052;SDS011;7101;51.600;7.310;2022-08-27T09:08:55;4.95;;;1.83;;
14052;SDS011;7101;51.600;7.310;2022-08-27T09:11:31;5.35;;;1.40;;
14052;SDS011;7101;51.600;7.310;2022-08-27T09:14:04;9.98;;;1.60;;
14052;SDS011;7101;51.600;7.310;2022-08-27T09:16:40;4.20;;;1.60;;
14052;SDS011;7101;51.600;7.310;2022-08-27T09:19:09;5.10;;;1.60;;
14052;SDS011;7101;51.600;7.310;2022-08-27T09:21:39;6.05;;;1.77;;
14052;SDS011;7101;51.600;7.310;2022-08-27T09:24:14;6.75;;;1.70;;
14052;SDS011;7101;51.600;7.310;2022-08-27T09:26:47;4.70;;;1.60;;
14052;SDS011;7101;51.600;7.310;2022-08-27T09:29:15;5.22;;;1.58;;
14052;SDS011;7101;51.600;7.310;2022-08-27T09:31:46;5.00;;;1.48;;
14052;SDS011;7101;51.600;7.310;2022-08-27T09:34:18;8.38;;;1.55;;
14052;SDS011;7101;51.600;7.310;2022-08-27T09:39:40;5.20;;;1.60;;
14052;SDS011;7101;51.600;7.310;2022-08-27T09:42:24;6.40;;;1.70;;
14052;SDS011;7101;51.600;7.310;2022-08-27T09:44:55;2.75;;;1.40;;
14052;SDS011;7101;51.600;7.310;2022-08-27T09:47:24;4.63;;;1.90;;
14052;SDS011;7101;51.600;7.310;2022-08-27T09:50:01;6.63;;;1.67;;
14052;SDS011;7101;51.600;7.310;2022-08-27T09:52:32;4.38;;;1.35;;
14052;SDS011;7101;51.600;7.310;2022-08-27T09:55:01;5.00;;;1.27;;
14052;SDS011;7101;51.600;7.310;2022-08-27T09:57:30;3.67;;;1.23;;
14052;SDS011;7101;51.600;7.310;2022-08-27T09:59:59;2.80;;;1.38;;
14052;SDS011;7101;51.600;7.310;2022-08-27T10:02:28;4.18;;;1.42;;
14052;SDS011;7101;51.600;7.310;2022-08-27T10:04:55;4.18;;;1.45;;
14052;SDS011;7101;51.600;7.310;2022-08-27T10:07:30;3.83;;;1.30;;
14052;SDS011;7101;51.600;7.310;2022-08-27T10:10:07;4.00;;;1.70;;
14052;SDS011;7101;51.600;7.310;2022-08-27T10:12:39;4.22;;;1.30;;
14052;SDS011;7101;51.600;7.310;2022-08-27T10:15:15;3.78;;;1.50;;
14052;SDS011;7101;51.600;7.310;2022-08-27T10:17:46;3.03;;;1.38;;
14052;SDS011;7101;51.600;7.310;2022-08-27T10:20:23;7.00;;;1.30;;
14052;SDS011;7101;51.600;7.310;2022-08-27T10:22:57;3.88;;;1.52;;
14052;SDS011;7101;51.600;7.310;2022-08-27T10:25:35;3.83;;;1.45;;
14052;SDS011;7101;51.600;7.310;2022-08-27T10:28:12;2.25;;;1.00;;
14052;SDS011;7101;51.600;7.310;2022-08-27T10:30:49;18.55;;;2.13;;
14052;SDS011;7101;51.600;7.310;2022-08-27T10:33:26;5.45;;;1.90;;
14052;SDS011;7101;51.600;7.310;2022-08-27T10:36:03;3.75;;;1.42;;
14052;SDS011;7101;51.600;7.310;2022-08-27T10:38:37;6.25;;;1.30;;
14052;SDS011;7101;51.600;7.310;2022-08-27T10:41:10;4.35;;;1.75;;
14052;SDS011;7101;51.600;7.310;2022-08-27T10:43:51;3.80;;;1.40;;
14052;SDS011;7101;51.600;7.310;2022-08-27T10:46:34;2.47;;;0.93;;
14052;SDS011;7101;51.600;7.310;2022-08-27T10:49:24;3.55;;;1.08;;
14052;SDS011;7101;51.600;7.310;2022-08-27T10:51:56;5.78;;;1.20;;
14052;SDS011;7101;51.600;7.310;2022-08-27T10:54:30;3.05;;;1.20;;
14052;SDS011;7101;51.600;7.310;2022-08-27T10:57:03;4.15;;;1.10;;
14052;SDS011;7101;51.600;7.310;2022-08-27T10:59:36;3.90;;;1.30;;
14052;SDS011;7101;51.600;7.310;2022-08-27T11:02:10;2.78;;;1.20;;
14052;SDS011;7101;51.600;7.310;2022-08-27T11:04:49;3.58;;;1.20;;
14052;SDS011;7101;51.600;7.310;2022-08-27T11:07:26;2.55;;;1.13;;
14052;SDS011;7101;51.600;7.310;2022-08-27T11:09:58;2.13;;;1.05;;
14052;SDS011;7101;51.600;7.310;2022-08-27T11:12:29;3.67;;;1.10;;
14052;SDS011;7101;51.600;7.310;2022-08-27T11:14:59;3.65;;;1.20;;
14052;SDS011;7101;51.600;7.310;2022-08-27T11:17:31;3.67;;;1.13;;
14052;SDS011;7101;51.600;7.310;2022-08-27T11:20:05;2.90;;;1.05;;
14052;SDS011;7101;51.600;7.310;2022-08-27T11:22:36;2.63;;;1.10;;
14052;SDS011;7101;51.600;7.310;2022-08-27T11:25:14;2.78;;;1.13;;
14052;SDS011;7101;51.600;7.310;2022-08-27T11:27:53;3.95;;;1.17;;
14052;SDS011;7101;51.600;7.310;2022-08-27T11:30:25;4.20;;;1.30;;
14052;SDS011;7101;51.600;7.310;2022-08-27T11:33:02;3.38;;;1.25;;
14052;SDS011;7101;51.600;7.310;2022-08-27T11:35:38;3.60;;;1.38;;
14052;SDS011;7101;51.600;7.310;2022-08-27T11:38:19;4.30;;;1.20;;
14052;SDS011;7101;51.600;7.310;2022-08-27T11:41:14;5.88;;;1.50;;
14052;SDS011;7101;51.600;7.310;2022-08-27T11:43:53;4.10;;;1.30;;
14052;SDS011;7101;51.600;7.310;2022-08-27T11:46:21;3.47;;;1.33;;
14052;SDS011;7101;51.600;7.310;2022-08-27T11:48:54;4.18;;;1.20;;
14052;SDS011;7101;51.600;7.310;2022-08-27T11:51:28;6.07;;;1.30;;
14052;SDS011;7101;51.600;7.310;2022-08-27T11:53:58;2.85;;;1.40;;
14052;SDS011;7101;51.600;7.310;2022-08-27T11:56:36;5.47;;;1.42;;
14052;SDS011;7101;51.600;7.310;2022-08-27T11:59:18;2.65;;;1.25;;
14052;SDS011;7101;51.600;7.310;2022-08-27T12:01:47;4.93;;;1.20;;
14052;SDS011;7101;51.600;7.310;2022-08-27T12:04:21;3.53;;;1.30;;
14052;SDS011;7101;51.600;7.310;2022-08-27T12:07:01;2.10;;;1.15;;
14052;SDS011;7101;51.600;7.310;2022-08-27T12:09:41;5.35;;;1.20;;
14052;SDS011;7101;51.600;7.310;2022-08-27T12:12:18;2.85;;;1.30;;
14052;SDS011;7101;51.600;7.310;2022-08-27T12:14:52;3.67;;;1.10;;
14052;SDS011;7101;51.600;7.310;2022-08-27T12:17:28;3.33;;;1.20;;
14052;SDS011;7101;51.600;7.310;2022-08-27T12:20:06;6.85;;;1.30;;
14052;SDS011;7101;51.600;7.310;2022-08-27T12:22:51;3.17;;;1.30;;
14052;SDS011;7101;51.600;7.310;2022-08-27T12:25:53;3.72;;;1.15;;
14052;SDS011;7101;51.600;7.310;2022-08-27T12:28:22;2.88;;;1.20;;
14052;SDS011;7101;51.600;7.310;2022-08-27T12:30:49;3.05;;;1.20;;
14052;SDS011;7101;51.600;7.310;2022-08-27T12:33:18;3.67;;;1.27;;
14052;SDS011;7101;51.600;7.310;2022-08-27T12:35:53;3.88;;;1.20;;
14052;SDS011;7101;51.600;7.310;2022-08-27T12:38:35;4.00;;;1.20;;
14052;SDS011;7101;51.600;7.310;2022-08-27T12:41:07;6.03;;;1.33;;
14052;SDS011;7101;51.600;7.310;2022-08-27T12:43:34;5.57;;;1.30;;
14052;SDS011;7101;51.600;7.310;2022-08-27T12:46:05;2.78;;;1.17;;
14052;SDS011;7101;51.600;7.310;2022-08-27T12:48:37;3.30;;;1.10;;
14052;SDS011;7101;51.600;7.310;2022-08-27T12:51:07;3.42;;;1.10;;
14052;SDS011;7101;51.600;7.310;2022-08-27T12:53:42;3.30;;;1.05;;
14052;SDS011;7101;51.600;7.310;2022-08-27T12:59:12;2.13;;;1.10;;
14052;SDS011;7101;51.600;7.310;2022-08-27T13:02:02;3.28;;;1.27;;
14052;SDS011;7101;51.600;7.310;2022-08-27T13:04:43;7.13;;;1.20;;
14052;SDS011;7101;51.600;7.310;2022-08-27T13:07:12;5.85;;;1.30;;
14052;SDS011;7101;51.600;7.310;2022-08-27T13:09:40;4.72;;;1.30;;
14052;SDS011;7101;51.600;7.310;2022-08-27T13:12:15;2.72;;;0.95;;
14052;SDS011;7101;51.600;7.310;2022-08-27T13:14:43;3.75;;;1.23;;
14052;SDS011;7101;51.600;7.310;2022-08-27T13:17:13;3.67;;;1.50;;
14052;SDS011;7101;51.600;7.310;2022-08-27T13:19:43;4.07;;;1.13;;
14052;SDS011;7101;51.600;7.310;2022-08-27T13:22:19;4.30;;;1.42;;
14052;SDS011;7101;51.600;7.310;2022-08-27T13:24:50;3.58;;;1.38;;
14052;SDS011;7101;51.600;7.310;2022-08-27T13:27:22;2.88;;;1.35;;
14052;SDS011;7101;51.600;7.310;2022-08-27T13:29:50;4.35;;;1.70;;
14052;SDS011;7101;51.600;7.310;2022-08-27T13:32:18;4.68;;;1.30;;
14052;SDS011;7101;51.600;7.310;2022-08-27T13:34:45;4.35;;;1.48;;
14052;SDS011;7101;51.600;7.310;2022-08-27T13:37:20;6.15;;;1.25;;
14052;SDS011;7101;51.600;7.310;2022-08-27T13:39:52;3.60;;;1.35;;
14052;SDS011;7101;51.600;7.310;2022-08-27T13:42:20;4.57;;;1.60;;
14052;SDS011;7101;51.600;7.310;2022-08-27T13:44:49;3.45;;;1.27;;
14052;SDS011;7101;51.600;7.310;2022-08-27T13:47:18;3.85;;;1.40;;
14052;SDS011;7101;51.600;7.310;2022-08-27T13:49:48;4.95;;;1.48;;
14052;SDS011;7101;51.600;7.310;2022-08-27T13:52:19;2.35;;;1.20;;
14052;SDS011;7101;51.600;7.310;2022-08-27T13:54:54;3.50;;;1.45;;
14052;SDS011;7101;51.600;7.310;2022-08-27T13:57:24;3.58;;;1.33;;
14052;SDS011;7101;51.600;7.310;2022-08-27T13:59:54;3.30;;;1.30;;
14052;SDS011;7101;51.600;7.310;2022-08-27T14:02:23;6.93;;;1.55;;
14052;SDS011;7101;51.600;7.310;2022-08-27T14:05:03;5.82;;;1.73;;
14052;SDS011;7101;51.600;7.310;2022-08-27T14:07:34;4.05;;;1.48;;
14052;SDS011;7101;51.600;7.310;2022-08-27T14:10:06;2.63;;;1.20;;
14052;SDS011;7101;51.600;7.310;2022-08-27T14:12:52;6.53;;;1.55;;
14052;SDS011;7101;51.600;7.310;2022-08-27T14:15:23;3.30;;;1.50;;
14052;SDS011;7101;51.600;7.310;2022-08-27T14:17:56;6.07;;;1.63;;
14052;SDS011;7101;51.600;7.310;2022-08-27T14:20:23;3.22;;;1.42;;
14052;SDS011;7101;51.600;7.310;2022-08-27T14:22:50;4.53;;;1.60;;
14052;SDS011;7101;51.600;7.310;2022-08-27T14:25:18;5.28;;;1.50;;
14052;SDS011;7101;51.600;7.310;2022-08-27T14:27:45;5.30;;;1.30;;
14052;SDS011;7101;51.600;7.310;2022-08-27T14:30:16;6.30;;;1.45;;
14052;SDS011;7101;51.600;7.310;2022-08-27T14:32:44;5.30;;;1.60;;
14052;SDS011;7101;51.600;7.310;2022-08-27T14:35:13;2.92;;;1.25;;
14052;SDS011;7101;51.600;7.310;2022-08-27T14:37:44;3.90;;;1.50;;
14052;SDS011;7101;51.600;7.310;2022-08-27T14:40:12;3.00;;;1.30;;
14052;SDS011;7101;51.600;7.310;2022-08-27T14:42:41;4.80;;;1.27;;
14052;SDS011;7101;51.600;7.310;2022-08-27T14:45:08;3.67;;;1.33;;
14052;SDS011;7101;51.600;7.310;2022-08-27T14:47:35;4.85;;;1.40;;
14052;SDS011;7101;51.600;7.310;2022-08-27T14:50:03;2.40;;;1.25;;
14052;SDS011;7101;51.600;7.310;2022-08-27T14:52:33;4.22;;;1.45;;
14052;SDS011;7101;51.600;7.310;2022-08-27T14:55:00;5.55;;;1.33;;
14052;SDS011;7101;51.600;7.310;2022-08-27T14:57:30;4.47;;;1.55;;
14052;SDS011;7101;51.600;7.310;2022-08-27T14:59:58;3.13;;;1.40;;
14052;SDS011;7101;51.600;7.310;2022-08-27T15:02:25;2.60;;;1.13;;
14052;SDS011;7101;51.600;7.310;2022-08-27T15:04:52;12.88;;;1.60;;
14052;SDS011;7101;51.600;7.310;2022-08-27T15:07:19;4.85;;;1.45;;
14052;SDS011;7101;51.600;7.310;2022-08-27T15:09:46;2.85;;;1.20;;
14052;SDS011;7101;51.600;7.310;2022-08-27T15:12:13;3.05;;;1.38;;
14052;SDS011;7101;51.600;7.310;2022-08-27T15:14:41;3.70;;;1.38;;
14052;SDS011;7101;51.600;7.310;2022-08-27T15:17:09;4.22;;;1.40;;
14052;SDS011;7101;51.600;7.310;2022-08-27T15:19:36;2.58;;;1.10;;
14052;SDS011;7101;51.600;7.310;2022-08-27T15:22:14;11.57;;;1.50;;
14052;SDS011;7101;51.600;7.310;2022-08-27T15:24:44;5.05;;;1.85;;